sensor_id;sensor_type;location;lat;lon;timestamp;pressure;altitude;pressure_sealevel;temperature;humidity
70925;BME280;58577;52.410;13.242;2022-12-07T00:01:06;100846.44;;;0.92;100.00
70925;BME280;58577;52.410;13.242;2022-12-07T00:03:54;100836.47;;;0.82;100.00
70925;BME280;58577;52.410;13.242;2022-12-07T00:06:53;100842.75;;;0.79;100.00
70925;BME280;58577;52.410;13.242;2022-12-07T00:09:38;100840.44;;;0.73;100.00
70925;BME280;58577;52.410;13.242;2022-12-07T00:12:24;100842.91;;;0.76;100.00
70925;BME280;58577;52.410;13.242;2022-12-07T00:15:10;100838.63;;;0.73;100.00
70925;BME280;58577;52.410;13.242;2022-12-07T00:17:56;100837.28;;;0.66;100.00
70925;BME280;58577;52.410;13.242;2022-12-07T00:20:42;100837.34;;;0.65;100.00
70925;BME280;58577;52.410;13.242;2022-12-07T00:23:27;100832.34;;;0.76;100.00
70925;BME280;58577;52.410;13.242;2022-12-07T00:26:15;100828.97;;;0.56;100.00
70925;BME280;58577;52.410;13.242;2022-12-07T00:29:21;100824.28;;;0.28;100.00
70925;BME280;58577;52.410;13.242;2022-12-07T00:32:08;100818.69;;;0.17;100.00
70925;BME280;58577;52.410;13.242;2022-12-07T00:34:54;100807.94;;;0.04;100.00
70925;BME280;58577;52.410;13.242;2022-12-07T00:37:40;100811.09;;;-0.07;100.00
70925;BME280;58577;52.410;13.242;2022-12-07T00:40:26;100806.22;;;-0.14;100.00
70925;BME280;58577;52.410;13.242;2022-12-07T00:43:11;100808.06;;;-0.16;100.00
70925;BME280;58577;52.410;13.242;2022-12-07T00:45:57;100800.31;;;-0.20;100.00
70925;BME280;58577;52.410;13.242;2022-12-07T00:48:43;100796.38;;;-0.11;100.00
70925;BME280;58577;52.410;13.242;2022-12-07T00:51:29;100797.53;;;-0.16;100.00
70925;BME280;58577;52.410;13.242;2022-12-07T00:54:15;100794.03;;;-0.17;100.00
70925;BME280;58577;52.410;13.242;2022-12-07T00:57:01;100795.19;;;-0.05;100.00
70925;BME280;58577;52.410;13.242;2022-12-07T00:59:48;100802.03;;;-0.01;100.00
70925;BME280;58577;52.410;13.242;2022-12-07T01:02:34;100800.41;;;0.14;100.00
70925;BME280;58577;52.410;13.242;2022-12-07T01:05:19;100789.75;;;0.15;100.00
70925;BME280;58577;52.410;13.242;2022-12-07T01:08:06;100794.03;;;0.01;100.00
70925;BME280;58577;52.410;13.242;2022-12-07T01:11:20;100788.00;;;-0.19;100.00
70925;BME280;58577;52.410;13.242;2022-12-07T01:14:06;100783.03;;;-0.08;100.00
70925;BME280;58577;52.410;13.242;2022-12-07T01:16:51;100785.44;;;-0.21;100.00
70925;BME280;58577;52.410;13.242;2022-12-07T01:19:37;100781.25;;;-0.25;100.00
70925;BME280;58577;52.410;13.242;2022-12-07T01:22:23;100774.50;;;-0.30;100.00
70925;BME280;58577;52.410;13.242;2022-12-07T01:25:11;100774.56;;;-0.32;100.00
70925;BME280;58577;52.410;13.242;2022-12-07T01:27:57;100770.22;;;-0.33;100.00
70925;BME280;58577;52.410;13.242;2022-12-07T01:30:43;100762.53;;;-0.37;100.00
70925;BME280;58577;52.410;13.242;2022-12-07T01:33:30;100760.53;;;-0.32;100.00
70925;BME280;58577;52.410;13.242;2022-12-07T01:36:28;100762.00;;;-0.44;100.00
70925;BME280;58577;52.410;13.242;2022-12-07T01:39:15;100755.31;;;-0.51;100.00
70925;BME280;58577;52.410;13.242;2022-12-07T01:42:00;100755.56;;;-0.56;100.00
70925;BME280;58577;52.410;13.242;2022-12-07T01:48:04;100763.28;;;-0.53;100.00
70925;BME280;58577;52.410;13.242;2022-12-07T01:50:53;100753.00;;;-0.57;100.00
70925;BME280;58577;52.410;13.242;2022-12-07T01:53:43;100753.19;;;-0.62;100.00
70925;BME280;58577;52.410;13.242;2022-12-07T01:56:32;100749.88;;;-0.66;100.00
70925;BME280;58577;52.410;13.242;2022-12-07T01:59:18;100740.38;;;-0.70;100.00
70925;BME280;58577;52.410;13.242;2022-12-07T02:02:12;100743.97;;;-0.71;100.00
70925;BME280;58577;52.410;13.242;2022-12-07T02:05:01;100745.66;;;-0.70;100.00
70925;BME280;58577;52.410;13.242;2022-12-07T02:07:47;100735.84;;;-0.66;100.00
70925;BME280;58577;52.410;13.242;2022-12-07T02:10:34;100731.66;;;-0.70;100.00
70925;BME280;58577;52.410;13.242;2022-12-07T02:13:29;100720.31;;;-0.72;100.00
70925;BME280;58577;52.410;13.242;2022-12-07T02:16:34;100730.25;;;-0.60;100.00
70925;BME280;58577;52.410;13.242;2022-12-07T02:20:09;100724.38;;;-0.65;100.00
70925;BME280;58577;52.410;13.242;2022-12-07T02:29:02;100724.13;;;-0.61;100.00
70925;BME280;58577;52.410;13.242;2022-12-07T02:32:02;100723.13;;;-0.58;100.00
70925;BME280;58577;52.410;13.242;2022-12-07T02:35:25;100715.31;;;-0.60;100.00
70925;BME280;58577;52.410;13.242;2022-12-07T02:41:22;100708.25;;;-0.59;100.00
70925;BME280;58577;52.410;13.242;2022-12-07T02:44:14;100703.63;;;-0.54;100.00
70925;BME280;58577;52.410;13.242;2022-12-07T02:47:06;100698.56;;;-0.58;100.00
70925;BME280;58577;52.410;13.242;2022-12-07T02:49:53;100708.13;;;-0.56;100.00
70925;BME280;58577;52.410;13.242;2022-12-07T02:52:39;100706.53;;;-0.60;100.00
70925;BME280;58577;52.410;13.242;2022-12-07T02:55:32;100696.63;;;-0.37;100.00
70925;BME280;58577;52.410;13.242;2022-12-07T03:01:28;100690.06;;;-0.46;100.00
70925;BME280;58577;52.410;13.242;2022-12-07T03:10:22;100678.50;;;-0.44;100.00
70925;BME280;58577;52.410;13.242;2022-12-07T03:19:27;100653.81;;;-0.60;100.00
70925;BME280;58577;52.410;13.242;2022-12-07T03:22:14;100656.38;;;-0.58;100.00
70925;BME280;58577;52.410;13.242;2022-12-07T03:25:06;100653.69;;;-0.57;100.00
70925;BME280;58577;52.410;13.242;2022-12-07T03:27:57;100659.47;;;-0.50;100.00
70925;BME280;58577;52.410;13.242;2022-12-07T03:34:12;100644.63;;;-0.51;100.00
70925;BME280;58577;52.410;13.242;2022-12-07T03:37:08;100630.19;;;-0.44;100.00
70925;BME280;58577;52.410;13.242;2022-12-07T03:43:01;100618.78;;;-0.45;100.00
70925;BME280;58577;52.410;13.242;2022-12-07T03:46:06;100614.59;;;-0.49;100.00
70925;BME280;58577;52.410;13.242;2022-12-07T03:54:45;100597.47;;;-0.40;100.00
70925;BME280;58577;52.410;13.242;2022-12-07T03:57:34;100594.84;;;-0.40;100.00
70925;BME280;58577;52.410;13.242;2022-12-07T04:00:21;100584.44;;;-0.43;100.00
70925;BME280;58577;52.410;13.242;2022-12-07T04:03:08;100589.31;;;-0.35;100.00
70925;BME280;58577;52.410;13.242;2022-12-07T04:05:55;100592.28;;;-0.42;100.00
70925;BME280;58577;52.410;13.242;2022-12-07T04:08:41;100593.19;;;-0.43;100.00
70925;BME280;58577;52.410;13.242;2022-12-07T04:11:26;100592.03;;;-0.37;100.00
70925;BME280;58577;52.410;13.242;2022-12-07T04:14:12;100582.91;;;-0.47;100.00
70925;BME280;58577;52.410;13.242;2022-12-07T04:17:04;100572.84;;;-0.56;100.00
70925;BME280;58577;52.410;13.242;2022-12-07T04:19:50;100572.31;;;-0.63;100.00
70925;BME280;58577;52.410;13.242;2022-12-07T04:22:36;100570.97;;;-0.54;100.00
70925;BME280;58577;52.410;13.242;2022-12-07T04:25:22;100565.88;;;-0.57;100.00
70925;BME280;58577;52.410;13.242;2022-12-07T04:28:07;100565.69;;;-0.54;100.00
70925;BME280;58577;52.410;13.242;2022-12-07T04:30:53;100563.06;;;-0.54;100.00
70925;BME280;58577;52.410;13.242;2022-12-07T04:33:39;100553.97;;;-0.49;100.00
70925;BME280;58577;52.410;13.242;2022-12-07T04:36:25;100555.84;;;-0.51;100.00
70925;BME280;58577;52.410;13.242;2022-12-07T04:39:27;100544.63;;;-0.54;100.00
70925;BME280;58577;52.410;13.242;2022-12-07T04:42:13;100554.69;;;-0.45;100.00
70925;BME280;58577;52.410;13.242;2022-12-07T04:44:59;100547.13;;;-0.35;100.00
70925;BME280;58577;52.410;13.242;2022-12-07T04:47:44;100542.63;;;-0.33;100.00
70925;BME280;58577;52.410;13.242;2022-12-07T04:50:30;100546.28;;;-0.36;100.00
70925;BME280;58577;52.410;13.242;2022-12-07T04:53:16;100539.00;;;-0.31;100.00
70925;BME280;58577;52.410;13.242;2022-12-07T04:56:02;100535.16;;;-0.25;100.00
70925;BME280;58577;52.410;13.242;2022-12-07T04:58:49;100531.94;;;-0.14;100.00
70925;BME280;58577;52.410;13.242;2022-12-07T05:01:35;100533.97;;;-0.20;100.00
70925;BME280;58577;52.410;13.242;2022-12-07T05:04:21;100523.53;;;-0.05;100.00
70925;BME280;58577;52.410;13.242;2022-12-07T05:07:06;100524.28;;;-0.03;100.00
70925;BME280;58577;52.410;13.242;2022-12-07T05:09:52;100521.50;;;0.00;100.00
70925;BME280;58577;52.410;13.242;2022-12-07T05:12:38;100524.78;;;0.04;100.00
70925;BME280;58577;52.410;13.242;2022-12-07T05:15:24;100524.91;;;0.02;100.00
70925;BME280;58577;52.410;13.242;2022-12-07T05:18:10;100522.94;;;0.22;100.00
70925;BME280;58577;52.410;13.242;2022-12-07T05:20:58;100517.91;;;0.17;100.00
70925;BME280;58577;52.410;13.242;2022-12-07T05:23:43;100516.47;;;0.27;100.00
70925;BME280;58577;52.410;13.242;2022-12-07T05:26:29;100516.28;;;0.14;100.00
70925;BME280;58577;52.410;13.242;2022-12-07T05:29:16;100519.25;;;0.24;100.00
70925;BME280;58577;52.410;13.242;2022-12-07T05:32:02;100517.38;;;0.26;100.00
70925;BME280;58577;52.410;13.242;2022-12-07T05:34:48;100508.63;;;0.26;100.00
70925;BME280;58577;52.410;13.242;2022-12-07T05:37:34;100505.63;;;0.32;100.00
70925;BME280;58577;52.410;13.242;2022-12-07T05:40:20;100506.75;;;0.28;100.00
70925;BME280;58577;52.410;13.242;2022-12-07T05:43:06;100503.00;;;0.32;100.00
70925;BME280;58577;52.410;13.242;2022-12-07T05:45:51;100497.88;;;0.29;100.00
70925;BME280;58577;52.410;13.242;2022-12-07T05:48:37;100504.06;;;0.44;100.00
70925;BME280;58577;52.410;13.242;2022-12-07T05:51:23;100498.63;;;0.47;100.00
70925;BME280;58577;52.410;13.242;2022-12-07T05:54:09;100493.91;;;0.52;100.00
70925;BME280;58577;52.410;13.242;2022-12-07T05:56:55;100487.44;;;0.57;100.00
70925;BME280;58577;52.410;13.242;2022-12-07T05:59:41;100491.97;;;0.55;100.00
70925;BME280;58577;52.410;13.242;2022-12-07T06:02:27;100491.88;;;0.57;100.00
70925;BME280;58577;52.410;13.242;2022-12-07T06:05:13;100487.88;;;0.66;100.00
70925;BME280;58577;52.410;13.242;2022-12-07T06:07:59;100482.47;;;0.67;100.00
70925;BME280;58577;52.410;13.242;2022-12-07T06:10:46;100477.88;;;0.71;100.00
70925;BME280;58577;52.410;13.242;2022-12-07T06:13:32;100465.31;;;0.74;100.00
70925;BME280;58577;52.410;13.242;2022-12-07T06:16:18;100473.63;;;0.68;100.00
70925;BME280;58577;52.410;13.242;2022-12-07T06:19:04;100474.47;;;0.69;100.00
70925;BME280;58577;52.410;13.242;2022-12-07T06:21:50;100477.78;;;0.72;100.00
70925;BME280;58577;52.410;13.242;2022-12-07T06:24:36;100471.53;;;0.73;100.00
70925;BME280;58577;52.410;13.242;2022-12-07T06:27:21;100471.88;;;0.83;100.00
70925;BME280;58577;52.410;13.242;2022-12-07T06:30:08;100472.63;;;0.85;100.00
70925;BME280;58577;52.410;13.242;2022-12-07T06:32:54;100466.50;;;0.99;100.00
70925;BME280;58577;52.410;13.242;2022-12-07T06:35:41;100471.13;;;0.95;100.00
70925;BME280;58577;52.410;13.242;2022-12-07T06:38:26;100466.91;;;1.07;100.00
70925;BME280;58577;52.410;13.242;2022-12-07T06:41:12;100473.09;;;1.06;100.00
70925;BME280;58577;52.410;13.242;2022-12-07T06:43:58;100468.13;;;1.16;100.00
70925;BME280;58577;52.410;13.242;2022-12-07T06:46:44;100465.59;;;1.14;100.00
70925;BME280;58577;52.410;13.242;2022-12-07T06:49:30;100465.59;;;1.14;100.00
70925;BME280;58577;52.410;13.242;2022-12-07T06:52:16;100471.72;;;1.15;100.00
70925;BME280;58577;52.410;13.242;2022-12-07T06:55:02;100473.22;;;1.19;100.00
70925;BME280;58577;52.410;13.242;2022-12-07T06:57:47;100464.25;;;1.22;100.00
70925;BME280;58577;52.410;13.242;2022-12-07T07:00:33;100455.00;;;1.29;100.00
70925;BME280;58577;52.410;13.242;2022-12-07T07:03:20;100461.13;;;1.29;100.00
70925;BME280;58577;52.410;13.242;2022-12-07T07:06:07;100451.53;;;1.28;100.00
70925;BME280;58577;52.410;13.242;2022-12-07T07:08:53;100462.66;;;1.33;100.00
70925;BME280;58577;52.410;13.242;2022-12-07T07:11:39;100458.22;;;1.34;100.00
70925;BME280;58577;52.410;13.242;2022-12-07T07:14:25;100459.44;;;1.43;100.00
70925;BME280;58577;52.410;13.242;2022-12-07T07:17:11;100464.94;;;1.40;100.00
70925;BME280;58577;52.410;13.242;2022-12-07T07:19:56;100460.09;;;1.46;100.00
70925;BME280;58577;52.410;13.242;2022-12-07T07:22:42;100462.81;;;1.45;100.00
70925;BME280;58577;52.410;13.242;2022-12-07T07:25:28;100458.94;;;1.50;100.00
70925;BME280;58577;52.410;13.242;2022-12-07T07:28:14;100468.13;;;1.45;100.00
70925;BME280;58577;52.410;13.242;2022-12-07T07:31:00;100453.56;;;1.52;100.00
70925;BME280;58577;52.410;13.242;2022-12-07T07:33:47;100474.72;;;1.52;100.00
70925;BME280;58577;52.410;13.242;2022-12-07T07:36:33;100462.66;;;1.48;100.00
70925;BME280;58577;52.410;13.242;2022-12-07T07:39:19;100457.06;;;1.52;100.00
70925;BME280;58577;52.410;13.242;2022-12-07T07:42:05;100464.91;;;1.54;100.00
70925;BME280;58577;52.410;13.242;2022-12-07T07:44:52;100463.22;;;1.53;100.00
70925;BME280;58577;52.410;13.242;2022-12-07T07:47:38;100459.81;;;1.51;100.00
70925;BME280;58577;52.410;13.242;2022-12-07T07:50:24;100467.19;;;1.46;100.00
70925;BME280;58577;52.410;13.242;2022-12-07T07:53:09;100459.63;;;1.54;100.00
70925;BME280;58577;52.410;13.242;2022-12-07T07:55:55;100466.88;;;1.50;100.00
70925;BME280;58577;52.410;13.242;2022-12-07T07:58:41;100465.47;;;1.45;100.00
70925;BME280;58577;52.410;13.242;2022-12-07T08:01:27;100464.25;;;1.50;100.00
70925;BME280;58577;52.410;13.242;2022-12-07T08:04:13;100472.28;;;1.49;100.00
70925;BME280;58577;52.410;13.242;2022-12-07T08:06:59;100465.38;;;1.61;100.00
70925;BME280;58577;52.410;13.242;2022-12-07T08:09:45;100461.72;;;1.49;100.00
70925;BME280;58577;52.410;13.242;2022-12-07T08:12:30;100479.09;;;1.53;100.00
70925;BME280;58577;52.410;13.242;2022-12-07T08:15:16;100470.09;;;1.55;100.00
70925;BME280;58577;52.410;13.242;2022-12-07T08:18:02;100479.53;;;1.60;100.00
70925;BME280;58577;52.410;13.242;2022-12-07T08:20:48;100478.50;;;1.62;100.00
70925;BME280;58577;52.410;13.242;2022-12-07T08:23:34;100479.06;;;1.67;100.00
70925;BME280;58577;52.410;13.242;2022-12-07T08:26:20;100475.66;;;1.65;100.00
70925;BME280;58577;52.410;13.242;2022-12-07T08:29:06;100484.91;;;1.72;100.00
70925;BME280;58577;52.410;13.242;2022-12-07T08:31:52;100487.00;;;1.82;100.00
70925;BME280;58577;52.410;13.242;2022-12-07T08:34:38;100482.81;;;1.77;100.00
70925;BME280;58577;52.410;13.242;2022-12-07T08:37:24;100485.09;;;1.84;100.00
70925;BME280;58577;52.410;13.242;2022-12-07T08:40:11;100491.41;;;1.81;100.00
70925;BME280;58577;52.410;13.242;2022-12-07T08:43:00;100494.31;;;1.91;100.00
70925;BME280;58577;52.410;13.242;2022-12-07T08:45:48;100479.81;;;1.84;100.00
70925;BME280;58577;52.410;13.242;2022-12-07T08:48:37;100494.53;;;1.88;100.00
70925;BME280;58577;52.410;13.242;2022-12-07T08:51:24;100499.25;;;1.83;100.00
70925;BME280;58577;52.410;13.242;2022-12-07T08:54:14;100501.59;;;1.87;100.00
70925;BME280;58577;52.410;13.242;2022-12-07T08:57:02;100501.16;;;1.81;100.00
70925;BME280;58577;52.410;13.242;2022-12-07T08:59:48;100499.72;;;1.89;100.00
70925;BME280;58577;52.410;13.242;2022-12-07T09:02:34;100504.38;;;1.86;100.00
70925;BME280;58577;52.410;13.242;2022-12-07T09:05:20;100514.38;;;1.81;100.00
70925;BME280;58577;52.410;13.242;2022-12-07T09:08:07;100504.63;;;1.81;100.00
70925;BME280;58577;52.410;13.242;2022-12-07T09:10:53;100508.34;;;1.79;100.00
70925;BME280;58577;52.410;13.242;2022-12-07T09:13:38;100520.31;;;1.70;100.00
70925;BME280;58577;52.410;13.242;2022-12-07T09:16:24;100519.97;;;1.76;100.00
70925;BME280;58577;52.410;13.242;2022-12-07T09:19:10;100522.78;;;1.73;100.00
70925;BME280;58577;52.410;13.242;2022-12-07T09:21:56;100513.16;;;1.72;100.00
70925;BME280;58577;52.410;13.242;2022-12-07T09:24:42;100528.16;;;1.71;100.00
70925;BME280;58577;52.410;13.242;2022-12-07T09:27:28;100524.88;;;1.68;100.00
70925;BME280;58577;52.410;13.242;2022-12-07T09:30:14;100531.56;;;1.73;100.00
70925;BME280;58577;52.410;13.242;2022-12-07T09:33:01;100542.25;;;1.72;100.00
70925;BME280;58577;52.410;13.242;2022-12-07T09:35:48;100536.97;;;1.86;100.00
70925;BME280;58577;52.410;13.242;2022-12-07T09:38:35;100526.19;;;1.89;100.00
70925;BME280;58577;52.410;13.242;2022-12-07T09:41:21;100544.31;;;1.95;100.00
70925;BME280;58577;52.410;13.242;2022-12-07T09:44:17;100555.56;;;1.85;98.04
70925;BME280;58577;52.410;13.242;2022-12-07T09:47:05;100555.56;;;1.85;96.95
70925;BME280;58577;52.410;13.242;2022-12-07T09:49:51;100554.22;;;1.77;96.68
70925;BME280;58577;52.410;13.242;2022-12-07T09:52:40;100553.88;;;1.69;98.00
70925;BME280;58577;52.410;13.242;2022-12-07T09:55:30;100555.66;;;1.69;96.14
70925;BME280;58577;52.410;13.242;2022-12-07T09:58:23;100557.47;;;1.68;96.61
70925;BME280;58577;52.410;13.242;2022-12-07T10:01:18;100554.34;;;1.62;96.66
70925;BME280;58577;52.410;13.242;2022-12-07T10:04:11;100558.50;;;1.66;98.37
70925;BME280;58577;52.410;13.242;2022-12-07T10:06:58;100555.84;;;1.66;98.67
70925;BME280;58577;52.410;13.242;2022-12-07T10:09:47;100549.91;;;1.62;98.72
70925;BME280;58577;52.410;13.242;2022-12-07T10:12:57;100547.44;;;1.73;99.35
70925;BME280;58577;52.410;13.242;2022-12-07T10:18:40;100551.97;;;1.71;99.83
70925;BME280;58577;52.410;13.242;2022-12-07T10:21:27;100548.09;;;1.77;99.28
70925;BME280;58577;52.410;13.242;2022-12-07T10:24:14;100557.09;;;1.74;98.84
70925;BME280;58577;52.410;13.242;2022-12-07T10:27:00;100553.41;;;1.91;100.00
70925;BME280;58577;52.410;13.242;2022-12-07T10:29:49;100547.16;;;1.92;99.61
70925;BME280;58577;52.410;13.242;2022-12-07T10:32:36;100539.97;;;2.09;99.29
70925;BME280;58577;52.410;13.242;2022-12-07T10:35:27;100534.16;;;2.16;99.10
70925;BME280;58577;52.410;13.242;2022-12-07T10:38:16;100534.91;;;2.19;100.00
70925;BME280;58577;52.410;13.242;2022-12-07T10:41:06;100532.22;;;2.33;98.68
70925;BME280;58577;52.410;13.242;2022-12-07T10:43:55;100528.41;;;2.37;98.67
70925;BME280;58577;52.410;13.242;2022-12-07T10:49:39;100538.84;;;2.53;98.20
70925;BME280;58577;52.410;13.242;2022-12-07T10:55:24;100532.78;;;2.38;96.85
70925;BME280;58577;52.410;13.242;2022-12-07T11:01:13;100540.00;;;2.22;97.72
70925;BME280;58577;52.410;13.242;2022-12-07T11:07:00;100532.44;;;2.30;97.70
70925;BME280;58577;52.410;13.242;2022-12-07T11:16:05;100523.38;;;2.47;96.46
70925;BME280;58577;52.410;13.242;2022-12-07T11:22:03;100520.94;;;2.44;97.02
70925;BME280;58577;52.410;13.242;2022-12-07T11:34:08;100514.28;;;2.24;99.07
70925;BME280;58577;52.410;13.242;2022-12-07T11:36:57;100514.00;;;2.28;99.13
70925;BME280;58577;52.410;13.242;2022-12-07T11:39:51;100513.03;;;2.29;98.26
70925;BME280;58577;52.410;13.242;2022-12-07T11:42:46;100510.94;;;2.34;98.59
70925;BME280;58577;52.410;13.242;2022-12-07T11:45:41;100509.22;;;2.33;98.60
70925;BME280;58577;52.410;13.242;2022-12-07T11:51:40;100504.19;;;2.43;99.11
70925;BME280;58577;52.410;13.242;2022-12-07T11:54:35;100508.88;;;2.52;99.33
70925;BME280;58577;52.410;13.242;2022-12-07T11:57:41;100507.56;;;2.45;98.63
70925;BME280;58577;52.410;13.242;2022-12-07T12:00:29;100501.91;;;2.51;98.49
70925;BME280;58577;52.410;13.242;2022-12-07T12:03:31;100493.63;;;2.56;98.60
70925;BME280;58577;52.410;13.242;2022-12-07T12:06:20;100499.69;;;2.58;98.50
70925;BME280;58577;52.410;13.242;2022-12-07T12:21:47;100489.22;;;2.69;97.79
70925;BME280;58577;52.410;13.242;2022-12-07T12:24:37;100489.22;;;2.69;97.31
70925;BME280;58577;52.410;13.242;2022-12-07T12:27:32;100483.75;;;2.72;98.03
70925;BME280;58577;52.410;13.242;2022-12-07T12:30:32;100486.06;;;2.77;96.87
70925;BME280;58577;52.410;13.242;2022-12-07T12:33:29;100490.84;;;2.85;96.36
70925;BME280;58577;52.410;13.242;2022-12-07T12:42:01;100482.19;;;2.95;96.66
70925;BME280;58577;52.410;13.242;2022-12-07T12:45:17;100474.66;;;3.02;95.30
70925;BME280;58577;52.410;13.242;2022-12-07T12:50:48;100474.88;;;3.12;93.89
70925;BME280;58577;52.410;13.242;2022-12-07T12:53:34;100472.53;;;3.33;94.60
70925;BME280;58577;52.410;13.242;2022-12-07T12:56:35;100465.75;;;3.16;93.78
70925;BME280;58577;52.410;13.242;2022-12-07T12:59:34;100476.34;;;3.29;94.36
70925;BME280;58577;52.410;13.242;2022-12-07T13:02:30;100476.03;;;3.21;93.38
70925;BME280;58577;52.410;13.242;2022-12-07T13:05:20;100468.81;;;3.10;93.79
70925;BME280;58577;52.410;13.242;2022-12-07T13:11:41;100469.53;;;2.99;93.60
70925;BME280;58577;52.410;13.242;2022-12-07T13:20:47;100461.91;;;2.94;94.03
70925;BME280;58577;52.410;13.242;2022-12-07T13:29:19;100456.41;;;2.85;95.64
70925;BME280;58577;52.410;13.242;2022-12-07T13:32:24;100458.50;;;2.80;95.65
70925;BME280;58577;52.410;13.242;2022-12-07T13:35:30;100453.94;;;2.82;95.26
70925;BME280;58577;52.410;13.242;2022-12-07T13:41:19;100459.06;;;2.85;95.25
70925;BME280;58577;52.410;13.242;2022-12-07T13:44:10;100465.38;;;2.69;95.66
70925;BME280;58577;52.410;13.242;2022-12-07T13:47:13;100465.38;;;2.69;95.33
70925;BME280;58577;52.410;13.242;2022-12-07T13:50:01;100464.41;;;2.58;95.50
70925;BME280;58577;52.410;13.242;2022-12-07T13:52:47;100459.31;;;2.54;96.14
70925;BME280;58577;52.410;13.242;2022-12-07T13:55:34;100462.94;;;2.53;96.50
70925;BME280;58577;52.410;13.242;2022-12-07T13:58:20;100464.91;;;2.50;97.80
70925;BME280;58577;52.410;13.242;2022-12-07T14:01:07;100466.19;;;2.44;97.41
70925;BME280;58577;52.410;13.242;2022-12-07T14:03:53;100457.69;;;2.39;98.40
70925;BME280;58577;52.410;13.242;2022-12-07T14:06:48;100461.81;;;2.43;97.67
70925;BME280;58577;52.410;13.242;2022-12-07T14:09:35;100472.22;;;2.46;97.49
70925;BME280;58577;52.410;13.242;2022-12-07T14:12:21;100465.44;;;2.42;97.67
70925;BME280;58577;52.410;13.242;2022-12-07T14:15:20;100473.28;;;2.44;97.20
70925;BME280;58577;52.410;13.242;2022-12-07T14:18:43;100474.31;;;2.41;97.29
70925;BME280;58577;52.410;13.242;2022-12-07T14:21:32;100461.56;;;2.33;97.84
70925;BME280;58577;52.410;13.242;2022-12-07T14:24:19;100469.75;;;2.30;98.28
70925;BME280;58577;52.410;13.242;2022-12-07T14:27:22;100468.34;;;2.25;98.23
70925;BME280;58577;52.410;13.242;2022-12-07T14:30:16;100465.44;;;2.15;99.02
70925;BME280;58577;52.410;13.242;2022-12-07T14:33:04;100461.00;;;2.15;99.08
70925;BME280;58577;52.410;13.242;2022-12-07T14:35:50;100470.94;;;2.12;99.16
70925;BME280;58577;52.410;13.242;2022-12-07T14:38:40;100458.19;;;2.04;99.16
70925;BME280;58577;52.410;13.242;2022-12-07T14:41:26;100467.94;;;2.04;99.00
70925;BME280;58577;52.410;13.242;2022-12-07T14:44:30;100461.25;;;1.98;99.27
70925;BME280;58577;52.410;13.242;2022-12-07T14:47:16;100466.22;;;2.03;99.64
70925;BME280;58577;52.410;13.242;2022-12-07T14:50:02;100458.63;;;1.84;100.00
70925;BME280;58577;52.410;13.242;2022-12-07T14:52:52;100459.38;;;1.86;100.00
70925;BME280;58577;52.410;13.242;2022-12-07T14:55:40;100454.59;;;1.78;100.00
70925;BME280;58577;52.410;13.242;2022-12-07T14:58:25;100458.81;;;1.81;100.00
70925;BME280;58577;52.410;13.242;2022-12-07T15:01:11;100456.00;;;1.69;100.00
70925;BME280;58577;52.410;13.242;2022-12-07T15:03:57;100454.50;;;1.65;100.00
70925;BME280;58577;52.410;13.242;2022-12-07T15:06:57;100458.94;;;1.65;100.00
70925;BME280;58577;52.410;13.242;2022-12-07T15:09:43;100456.41;;;1.63;100.00
70925;BME280;58577;52.410;13.242;2022-12-07T15:12:29;100450.00;;;1.53;100.00
70925;BME280;58577;52.410;13.242;2022-12-07T15:15:15;100453.00;;;1.47;100.00
70925;BME280;58577;52.410;13.242;2022-12-07T15:18:02;100463.78;;;1.44;100.00
70925;BME280;58577;52.410;13.242;2022-12-07T15:20:48;100464.44;;;1.33;100.00
70925;BME280;58577;52.410;13.242;2022-12-07T15:23:34;100460.19;;;1.30;100.00
70925;BME280;58577;52.410;13.242;2022-12-07T15:26:20;100465.41;;;1.32;100.00
70925;BME280;58577;52.410;13.242;2022-12-07T15:29:06;100456.81;;;1.28;100.00
70925;BME280;58577;52.410;13.242;2022-12-07T15:31:52;100464.38;;;1.20;100.00
70925;BME280;58577;52.410;13.242;2022-12-07T15:34:38;100462.47;;;1.22;100.00
70925;BME280;58577;52.410;13.242;2022-12-07T15:37:24;100460.75;;;1.21;100.00
70925;BME280;58577;52.410;13.242;2022-12-07T15:40:10;100459.53;;;1.27;100.00
70925;BME280;58577;52.410;13.242;2022-12-07T15:42:56;100468.13;;;1.30;100.00
70925;BME280;58577;52.410;13.242;2022-12-07T15:45:42;100455.31;;;1.24;100.00
70925;BME280;58577;52.410;13.242;2022-12-07T15:48:28;100466.25;;;1.18;100.00
70925;BME280;58577;52.410;13.242;2022-12-07T15:51:14;100459.44;;;1.14;100.00
70925;BME280;58577;52.410;13.242;2022-12-07T15:54:00;100460.84;;;1.05;100.00
70925;BME280;58577;52.410;13.242;2022-12-07T15:56:46;100463.19;;;0.95;100.00
70925;BME280;58577;52.410;13.242;2022-12-07T15:59:32;100457.63;;;1.00;100.00
70925;BME280;58577;52.410;13.242;2022-12-07T16:02:17;100456.97;;;0.96;100.00
70925;BME280;58577;52.410;13.242;2022-12-07T16:05:04;100461.03;;;0.88;100.00
70925;BME280;58577;52.410;13.242;2022-12-07T16:07:49;100451.66;;;0.82;100.00
70925;BME280;58577;52.410;13.242;2022-12-07T16:10:36;100465.63;;;0.84;100.00
70925;BME280;58577;52.410;13.242;2022-12-07T16:13:21;100466.38;;;0.86;100.00
70925;BME280;58577;52.410;13.242;2022-12-07T16:16:11;100472.50;;;0.87;100.00
70925;BME280;58577;52.410;13.242;2022-12-07T16:18:58;100468.63;;;0.78;100.00
70925;BME280;58577;52.410;13.242;2022-12-07T16:21:44;100466.94;;;0.77;100.00
70925;BME280;58577;52.410;13.242;2022-12-07T16:24:31;100470.81;;;0.86;100.00
70925;BME280;58577;52.410;13.242;2022-12-07T16:27:17;100463.06;;;0.83;100.00